Time;durP1;ratioP1;P1;durP2;ratioP2;P2;SDS_P1;SDS_P2;PMS_P1;PMS_P2;Temp;Humidity;BMP_temperature;BMP_pressure;BME280_temperature;BME280_humidity;BME280_pressure;Samples;Min_cycle;Max_cycle;Signal;HPM_P1;HPM_P2
2023/03/29 00:00:42;;;;;;;9.10;4.60;;;8.30;66.30;;;;;;5010521;28;20933;-81
2023/03/29 00:03:11;;;;;;;7.43;3.60;;;8.30;66.30;;;;;;4992924;28;20602;-83
2023/03/29 00:05:39;;;;;;;7.90;4.57;;;8.30;66.40;;;;;;5003788;28;20475;-81
2023/03/29 00:08:08;;;;;;;9.50;4.20;;;8.30;66.50;;;;;;5010750;28;20472;-82
2023/03/29 00:10:37;;;;;;;13.70;5.18;;;8.30;66.50;;;;;;5008222;28;20507;-81
2023/03/29 00:13:05;;;;;;;10.07;3.90;;;8.30;66.60;;;;;;5010511;28;20202;-82
2023/03/29 00:15:33;;;;;;;8.53;3.50;;;8.30;66.50;;;;;;5012213;28;20498;-82
2023/03/29 00:18:01;;;;;;;7.30;3.33;;;8.30;66.50;;;;;;5012387;28;20464;-82
2023/03/29 00:20:29;;;;;;;7.13;3.80;;;8.30;66.50;;;;;;5012880;28;20464;-81
2023/03/29 00:23:03;;;;;;;10.43;3.42;;;8.30;66.40;;;;;;5009945;28;20592;-81
2023/03/29 00:25:31;;;;;;;7.50;3.28;;;8.40;66.40;;;;;;5011665;28;20210;-82
2023/03/29 00:28:00;;;;;;;6.90;3.58;;;8.40;66.40;;;;;;5015672;28;20266;-81
2023/03/29 00:30:28;;;;;;;6.25;3.03;;;8.40;66.40;;;;;;5010390;28;20239;-82
2023/03/29 00:32:56;;;;;;;7.80;3.17;;;8.40;66.40;;;;;;4994400;28;20255;-82
2023/03/29 00:35:27;;;;;;;5.33;2.23;;;8.40;66.50;;;;;;5012162;28;20471;-81
2023/03/29 00:37:56;;;;;;;6.32;3.15;;;8.40;66.50;;;;;;5016836;28;20479;-82
2023/03/29 00:40:24;;;;;;;6.65;2.60;;;8.40;66.50;;;;;;5014105;28;20263;-82
2023/03/29 00:42:54;;;;;;;5.80;2.80;;;8.40;66.60;;;;;;5007467;28;20211;-82
2023/03/29 00:45:28;;;;;;;5.32;2.53;;;8.50;66.50;;;;;;5019424;28;21084;-82
2023/03/29 00:47:58;;;;;;;4.40;2.50;;;8.50;66.60;;;;;;5008857;28;20204;-81
2023/03/29 00:50:31;;;;;;;5.47;2.87;;;8.50;66.60;;;;;;5009741;28;20463;-81
2023/03/29 00:53:04;;;;;;;6.10;2.83;;;8.50;66.70;;;;;;5014839;28;20510;-81
2023/03/29 00:55:36;;;;;;;6.13;3.30;;;8.50;66.70;;;;;;5022203;28;20466;-83
2023/03/29 00:58:08;;;;;;;10.60;3.00;;;8.50;66.80;;;;;;5001403;28;20241;-81
2023/03/29 01:00:44;;;;;;;7.95;3.50;;;8.50;66.80;;;;;;4994184;28;20471;-84
2023/03/29 01:03:23;;;;;;;8.60;2.93;;;8.60;66.90;;;;;;4992251;28;20214;-82
2023/03/29 01:05:56;;;;;;;7.73;2.87;;;8.60;66.80;;;;;;4999795;28;20941;-84
2023/03/29 01:08:28;;;;;;;6.25;3.65;;;8.60;66.90;;;;;;4983229;28;21320;-84
2023/03/29 01:11:02;;;;;;;8.83;3.00;;;8.60;66.90;;;;;;4987729;28;20209;-81
2023/03/29 01:13:37;;;;;;;7.93;3.30;;;8.60;67.00;;;;;;4979005;28;20518;-82
2023/03/29 01:16:10;;;;;;;8.43;2.90;;;8.60;67.10;;;;;;4980721;28;20229;-84
2023/03/29 01:18:38;;;;;;;5.45;2.97;;;8.60;67.10;;;;;;4995359;28;20552;-82
2023/03/29 01:21:22;;;;;;;7.40;3.50;;;8.50;67.20;;;;;;4997767;28;20232;-84
2023/03/29 01:24:18;;;;;;;6.83;3.60;;;8.40;67.40;;;;;;4995544;28;20469;-83
2023/03/29 01:26:54;;;;;;;6.43;3.43;;;8.30;67.60;;;;;;4980715;28;20550;-83
2023/03/29 01:29:27;;;;;;;7.15;3.33;;;8.30;67.70;;;;;;4998736;28;20476;-83
2023/03/29 01:32:01;;;;;;;8.20;4.38;;;8.20;67.80;;;;;;4986399;28;20227;-84
2023/03/29 01:34:36;;;;;;;9.98;3.50;;;8.20;68.00;;;;;;4978767;28;20191;-83
2023/03/29 01:37:08;;;;;;;7.20;3.30;;;8.20;68.10;;;;;;4991978;28;20194;-83
2023/03/29 01:39:36;;;;;;;8.30;4.07;;;8.20;68.20;;;;;;4993932;28;20206;-83
2023/03/29 01:42:14;;;;;;;7.03;3.20;;;8.20;68.30;;;;;;4996348;28;20448;-84
2023/03/29 01:44:51;;;;;;;7.03;3.13;;;8.30;68.40;;;;;;4992447;28;20474;-88
2023/03/29 01:47:26;;;;;;;9.48;3.78;;;8.30;68.40;;;;;;4995972;28;20496;-87
2023/03/29 01:50:05;;;;;;;7.40;2.97;;;8.30;68.50;;;;;;4997878;28;20237;-87
2023/03/29 01:52:39;;;;;;;6.03;3.23;;;8.30;68.50;;;;;;4997030;28;20488;-87
2023/03/29 01:55:13;;;;;;;8.07;3.70;;;8.30;68.60;;;;;;4990977;28;20468;-84
2023/03/29 01:57:45;;;;;;;6.50;3.05;;;8.30;68.80;;;;;;4997372;28;20500;-85
2023/03/29 02:00:18;;;;;;;6.20;3.08;;;8.30;68.80;;;;;;4988027;28;20206;-85
2023/03/29 02:02:51;;;;;;;6.80;3.58;;;8.30;68.80;;;;;;4989015;28;20273;-84
2023/03/29 02:05:21;;;;;;;6.68;3.33;;;8.30;68.80;;;;;;4998843;28;20303;-83
2023/03/29 02:07:51;;;;;;;10.15;3.22;;;8.30;69.00;;;;;;4991905;28;20311;-84
2023/03/29 02:10:21;;;;;;;5.70;2.92;;;8.30;69.10;;;;;;4997343;28;20258;-84
2023/03/29 02:12:50;;;;;;;5.53;2.77;;;8.40;69.10;;;;;;4996928;28;20205;-84
2023/03/29 02:15:22;;;;;;;6.03;3.00;;;8.40;69.10;;;;;;5000539;28;20492;-81
2023/03/29 02:17:50;;;;;;;7.83;2.90;;;8.40;69.20;;;;;;4995062;28;20569;-81
2023/03/29 02:20:24;;;;;;;6.40;3.80;;;8.40;69.20;;;;;;4977542;28;20464;-82
2023/03/29 02:22:58;;;;;;;5.00;2.70;;;8.40;69.30;;;;;;4994308;28;20476;-84
2023/03/29 02:25:26;;;;;;;5.10;3.10;;;8.40;69.30;;;;;;4994573;28;20476;-84
2023/03/29 02:27:54;;;;;;;7.63;3.10;;;8.40;69.30;;;;;;4996814;28;20496;-82
2023/03/29 02:30:28;;;;;;;8.90;4.00;;;8.40;69.40;;;;;;5000800;28;20461;-82
2023/03/29 02:33:01;;;;;;;16.60;11.80;;;8.40;69.50;;;;;;4991463;28;20453;-80
2023/03/29 02:35:35;;;;;;;10.00;6.40;;;8.40;69.60;;;;;;4991042;28;20476;-80
2023/03/29 02:38:07;;;;;;;7.22;4.13;;;8.40;69.60;;;;;;4994788;28;20479;-83
2023/03/29 02:40:36;;;;;;;6.37;3.77;;;8.40;69.60;;;;;;4993866;28;20202;-83
2023/03/29 02:43:07;;;;;;;6.28;3.05;;;8.30;69.80;;;;;;4980246;28;20515;-82
2023/03/29 02:45:38;;;;;;;13.10;3.50;;;8.20;69.90;;;;;;4978119;28;20232;-82
2023/03/29 02:48:11;;;;;;;9.10;4.07;;;8.20;70.00;;;;;;4995982;28;20355;-81
2023/03/29 02:50:41;;;;;;;8.23;3.30;;;8.20;69.90;;;;;;4992227;28;20478;-82
2023/03/29 02:53:14;;;;;;;7.93;3.67;;;8.20;70.10;;;;;;4973108;28;20470;-81
2023/03/29 02:55:44;;;;;;;5.87;3.23;;;8.20;70.10;;;;;;5002718;28;20451;-83
2023/03/29 02:58:14;;;;;;;7.40;3.33;;;8.10;70.20;;;;;;4997120;28;20910;-81
2023/03/29 03:00:45;;;;;;;5.63;2.80;;;8.10;70.30;;;;;;4992788;28;20472;-81
2023/03/29 03:03:15;;;;;;;6.53;3.15;;;8.10;70.40;;;;;;4991972;28;20460;-81
2023/03/29 03:05:46;;;;;;;5.60;3.08;;;8.10;70.50;;;;;;4999571;28;20222;-80
2023/03/29 03:08:15;;;;;;;7.93;4.22;;;8.10;70.50;;;;;;4995644;28;20239;-81
2023/03/29 03:10:43;;;;;;;5.63;3.20;;;8.10;70.60;;;;;;4994745;28;20305;-81
2023/03/29 03:13:11;;;;;;;5.82;2.97;;;8.10;70.60;;;;;;4988975;28;20210;-80
2023/03/29 03:15:41;;;;;;;9.20;3.10;;;8.10;70.60;;;;;;4993285;28;20205;-80
2023/03/29 03:18:11;;;;;;;5.43;2.90;;;8.10;70.60;;;;;;4992125;28;20558;-80
2023/03/29 03:20:39;;;;;;;6.18;2.95;;;8.10;70.70;;;;;;4995754;28;20465;-80
2023/03/29 03:23:08;;;;;;;5.00;2.65;;;8.10;70.70;;;;;;4995100;28;20201;-80
2023/03/29 03:25:37;;;;;;;4.97;2.87;;;8.10;70.80;;;;;;5001558;28;20228;-81
2023/03/29 03:28:05;;;;;;;6.10;3.10;;;8.10;70.80;;;;;;4991943;28;20492;-80
2023/03/29 03:30:33;;;;;;;7.43;3.20;;;8.10;70.90;;;;;;4989110;28;20736;-80
2023/03/29 03:33:18;;;;;;;7.47;3.10;;;8.10;71.00;;;;;;4996253;28;20263;-80
2023/03/29 03:36:05;;;;;;;5.15;2.50;;;8.10;71.10;;;;;;4995010;28;20461;-84
2023/03/29 03:38:36;;;;;;;5.68;2.88;;;8.10;71.10;;;;;;4980362;28;20644;-83
2023/03/29 03:41:06;;;;;;;6.10;3.10;;;8.10;71.20;;;;;;4999339;28;20283;-82
2023/03/29 03:43:35;;;;;;;10.15;3.88;;;8.20;71.10;;;;;;4999096;28;20202;-82
2023/03/29 03:46:03;;;;;;;5.72;2.75;;;8.20;71.10;;;;;;4996881;28;20843;-83
2023/03/29 03:48:33;;;;;;;7.82;3.80;;;8.20;71.00;;;;;;4990630;28;20255;-83
2023/03/29 03:51:08;;;;;;;6.82;3.70;;;8.20;71.10;;;;;;4995294;28;20201;-83
2023/03/29 03:53:37;;;;;;;8.13;3.00;;;8.10;71.10;;;;;;4993170;28;20204;-85
2023/03/29 03:56:15;;;;;;;8.93;4.43;;;8.10;71.10;;;;;;4991823;28;20555;-82
2023/03/29 03:59:01;;;;;;;7.63;3.95;;;8.10;71.20;;;;;;4989590;28;20216;-80
2023/03/29 04:01:42;;;;;;;5.45;2.88;;;8.10;71.30;;;;;;4988896;28;20504;-83
2023/03/29 04:04:19;;;;;;;7.53;2.95;;;8.10;71.30;;;;;;4993294;28;20664;-82
2023/03/29 04:07:16;;;;;;;5.25;3.15;;;8.10;71.30;;;;;;4991532;28;20545;-83
2023/03/29 04:10:12;;;;;;;8.13;3.90;;;8.10;71.40;;;;;;4992665;28;20253;-87
2023/03/29 04:12:50;;;;;;;7.35;3.95;;;8.20;71.40;;;;;;4996521;28;20477;-86
2023/03/29 04:15:19;;;;;;;6.43;3.43;;;8.20;71.40;;;;;;5000736;28;20625;-80
2023/03/29 04:17:55;;;;;;;7.38;3.20;;;8.20;71.40;;;;;;4990008;28;20742;-80
2023/03/29 04:20:28;;;;;;;5.67;3.13;;;8.20;71.30;;;;;;4992675;28;20198;-81
2023/03/29 04:22:57;;;;;;;5.32;2.95;;;8.10;71.40;;;;;;5001235;28;21206;-81
2023/03/29 04:25:31;;;;;;;11.43;5.53;;;8.10;71.50;;;;;;4998168;28;20399;-81
2023/03/29 04:28:22;;;;;;;9.03;4.77;;;8.00;71.60;;;;;;4992029;28;20394;-81
2023/03/29 04:31:10;;;;;;;8.50;4.85;;;8.00;71.70;;;;;;4976695;28;20461;-82
2023/03/29 04:34:01;;;;;;;8.02;4.55;;;7.90;71.80;;;;;;4977346;28;20227;-82
2023/03/29 04:36:30;;;;;;;7.13;4.00;;;8.00;71.90;;;;;;4976909;28;20218;-81
2023/03/29 04:39:00;;;;;;;9.73;4.70;;;8.00;71.90;;;;;;4993624;28;20496;-82
2023/03/29 04:41:29;;;;;;;6.50;4.10;;;8.00;72.00;;;;;;4994327;28;20479;-82
2023/03/29 04:44:05;;;;;;;16.90;11.02;;;8.00;72.00;;;;;;4994848;28;20216;-81
2023/03/29 04:46:38;;;;;;;25.33;15.00;;;8.00;72.00;;;;;;4983018;28;20248;-82
2023/03/29 04:49:26;;;;;;;19.38;11.45;;;8.00;72.00;;;;;;4994798;28;20555;-82
2023/03/29 04:51:56;;;;;;;8.50;5.33;;;7.90;72.00;;;;;;4995410;28;20270;-82
2023/03/29 04:54:27;;;;;;;9.00;3.90;;;7.90;72.10;;;;;;4998422;28;20941;-84
2023/03/29 04:57:19;;;;;;;7.03;4.30;;;7.90;72.10;;;;;;4990722;28;20225;-85
2023/03/29 04:59:58;;;;;;;8.25;3.92;;;7.80;72.20;;;;;;4980289;28;20255;-84
2023/03/29 05:02:45;;;;;;;5.70;3.17;;;7.80;72.30;;;;;;4995783;28;20220;-82
2023/03/29 05:05:14;;;;;;;9.10;4.53;;;7.80;72.30;;;;;;4987026;28;20596;-82
2023/03/29 05:07:45;;;;;;;7.88;5.10;;;7.80;72.30;;;;;;4994349;28;20227;-83
2023/03/29 05:10:14;;;;;;;6.95;4.13;;;7.80;72.40;;;;;;4990630;28;20209;-81
2023/03/29 05:12:42;;;;;;;7.68;4.80;;;7.80;72.30;;;;;;4977681;28;20194;-82
2023/03/29 05:15:11;;;;;;;7.60;4.33;;;7.80;72.20;;;;;;4977589;28;20195;-80
2023/03/29 05:17:39;;;;;;;7.65;4.72;;;7.80;72.30;;;;;;4989581;28;20500;-83
2023/03/29 05:20:11;;;;;;;10.65;4.75;;;7.80;72.30;;;;;;4984967;28;20205;-80
2023/03/29 05:22:48;;;;;;;6.72;4.20;;;7.80;72.40;;;;;;4992616;28;20211;-82
2023/03/29 05:25:36;;;;;;;8.45;4.43;;;7.70;72.30;;;;;;4993127;28;20292;-82
2023/03/29 05:28:04;;;;;;;10.20;6.80;;;7.70;72.30;;;;;;4992951;28;20216;-83
2023/03/29 05:30:39;;;;;;;15.38;9.95;;;7.70;72.30;;;;;;4996071;28;20225;-82
2023/03/29 05:33:20;;;;;;;15.57;9.90;;;7.70;72.40;;;;;;4993229;28;20209;-82
2023/03/29 05:35:48;;;;;;;12.02;6.60;;;7.70;72.40;;;;;;4993268;28;20272;-83
2023/03/29 05:38:17;;;;;;;7.90;5.10;;;7.70;72.40;;;;;;4998232;28;20214;-83
2023/03/29 05:40:45;;;;;;;8.95;4.72;;;7.70;72.40;;;;;;4998649;28;20217;-83
2023/03/29 05:43:39;;;;;;;11.98;5.15;;;7.70;72.30;;;;;;4976497;28;20205;-83
2023/03/29 05:46:07;;;;;;;10.68;4.82;;;7.60;72.30;;;;;;4991976;28;20221;-83
2023/03/29 05:48:40;;;;;;;11.27;5.10;;;7.60;72.50;;;;;;4993544;28;20236;-83
2023/03/29 05:51:08;;;;;;;10.30;4.93;;;7.60;72.50;;;;;;4978854;28;20202;-81
2023/03/29 05:53:37;;;;;;;9.68;5.10;;;7.50;72.50;;;;;;4984351;28;20232;-82
2023/03/29 05:56:07;;;;;;;10.35;5.55;;;7.50;72.60;;;;;;4991545;28;20208;-80
2023/03/29 05:58:35;;;;;;;10.57;5.40;;;7.50;72.70;;;;;;4986824;28;20508;-80
2023/03/29 06:01:04;;;;;;;12.15;8.60;;;7.50;72.70;;;;;;4973960;28;20233;-80
2023/03/29 06:03:55;;;;;;;32.95;23.00;;;7.50;72.70;;;;;;4991074;28;20661;-80
2023/03/29 06:06:30;;;;;;;29.83;20.98;;;7.50;72.70;;;;;;4980639;28;20213;-79
2023/03/29 06:09:01;;;;;;;24.00;16.40;;;7.50;72.80;;;;;;4986607;28;20257;-80
2023/03/29 06:11:34;;;;;;;20.85;13.65;;;7.50;73.00;;;;;;4992639;28;20680;-80
2023/03/29 06:14:35;;;;;;;18.00;12.30;;;7.50;73.10;;;;;;4990476;28;20228;-80
2023/03/29 06:17:26;;;;;;;14.30;9.48;;;7.60;73.10;;;;;;4996092;28;20587;-80
2023/03/29 06:19:56;;;;;;;14.75;9.80;;;7.60;73.10;;;;;;4979750;28;20217;-79
2023/03/29 06:22:26;;;;;;;13.88;9.35;;;7.70;73.20;;;;;;4996278;28;20205;-79
2023/03/29 06:24:56;;;;;;;13.82;9.60;;;7.70;73.20;;;;;;4974138;28;20321;-79
2023/03/29 06:27:29;;;;;;;13.00;8.48;;;7.80;73.20;;;;;;4999324;28;20239;-79
2023/03/29 06:29:58;;;;;;;14.38;5.90;;;7.80;73.20;;;;;;4992510;28;20706;-79
2023/03/29 06:32:26;;;;;;;11.15;7.25;;;7.90;73.20;;;;;;4988636;28;20287;-81
2023/03/29 06:35:03;;;;;;;12.93;6.72;;;7.90;73.20;;;;;;4990834;28;20208;-80
2023/03/29 06:37:48;;;;;;;10.07;7.18;;;7.90;73.30;;;;;;4994745;28;20210;-79
2023/03/29 06:40:23;;;;;;;9.45;6.18;;;7.90;73.40;;;;;;4993780;28;20213;-80
2023/03/29 06:42:56;;;;;;;8.68;5.20;;;8.00;73.50;;;;;;4976160;28;20252;-80
2023/03/29 06:45:44;;;;;;;8.93;5.47;;;8.00;73.50;;;;;;4994585;28;20228;-81
2023/03/29 06:48:21;;;;;;;8.98;5.45;;;8.10;73.60;;;;;;4993761;28;20580;-79
2023/03/29 06:50:49;;;;;;;10.53;5.37;;;8.10;73.60;;;;;;4995926;28;20978;-79
2023/03/29 06:53:18;;;;;;;12.03;5.27;;;8.20;73.60;;;;;;4990921;28;20561;-77
2023/03/29 06:55:55;;;;;;;7.77;4.40;;;8.30;73.50;;;;;;4989317;28;20472;-81
2023/03/29 06:58:45;;;;;;;8.47;4.57;;;8.30;73.60;;;;;;4982816;28;21070;-81
2023/03/29 07:01:32;;;;;;;8.30;4.60;;;8.40;73.40;;;;;;4990185;28;21037;-80
2023/03/29 07:04:08;;;;;;;9.00;4.33;;;8.40;73.50;;;;;;4973102;28;20462;-78
2023/03/29 07:07:04;;;;;;;7.75;4.50;;;8.50;73.50;;;;;;4989713;28;20534;-80
2023/03/29 07:09:38;;;;;;;6.87;4.80;;;8.50;73.50;;;;;;5000427;28;20234;-80
2023/03/29 07:12:37;;;;;;;7.22;4.00;;;8.60;73.60;;;;;;4993334;28;20462;-82
2023/03/29 07:15:06;;;;;;;9.50;4.00;;;8.60;73.60;;;;;;4992140;28;20743;-81
2023/03/29 07:17:57;;;;;;;8.53;3.63;;;8.70;73.60;;;;;;4992394;28;20485;-84
2023/03/29 07:20:26;;;;;;;6.53;3.97;;;8.80;73.60;;;;;;4992616;28;20464;-82
2023/03/29 07:23:08;;;;;;;9.00;3.90;;;8.90;73.60;;;;;;4993290;28;20571;-80
2023/03/29 07:25:37;;;;;;;6.73;4.03;;;9.00;73.60;;;;;;4980840;28;20528;-80
2023/03/29 07:28:07;;;;;;;7.30;4.10;;;9.00;73.60;;;;;;4988721;28;20564;-80
2023/03/29 07:30:36;;;;;;;6.47;3.80;;;9.10;73.40;;;;;;4976847;28;20494;-81
2023/03/29 07:33:18;;;;;;;8.40;4.57;;;9.10;73.40;;;;;;4994633;28;20884;-80
2023/03/29 07:35:54;;;;;;;6.03;3.80;;;9.20;73.40;;;;;;4993510;28;20544;-80
2023/03/29 07:38:22;;;;;;;10.23;3.70;;;9.20;73.40;;;;;;4999136;28;20533;-79
2023/03/29 07:41:02;;;;;;;6.20;3.57;;;9.30;73.30;;;;;;4980587;28;20494;-79
2023/03/29 07:43:50;;;;;;;6.13;3.70;;;9.40;73.20;;;;;;4992451;28;20942;-81
2023/03/29 07:46:23;;;;;;;6.33;3.50;;;9.40;73.20;;;;;;4994652;28;20577;-81
2023/03/29 07:48:51;;;;;;;7.27;3.80;;;9.50;73.10;;;;;;4992809;28;20458;-81
2023/03/29 07:51:20;;;;;;;8.30;3.50;;;9.50;73.00;;;;;;4977034;28;20972;-80
2023/03/29 07:53:50;;;;;;;6.60;3.00;;;9.60;73.00;;;;;;4995011;28;20818;-79
2023/03/29 07:56:48;;;;;;;8.97;3.27;;;9.60;72.90;;;;;;4987282;28;20458;-79
2023/03/29 07:59:20;;;;;;;6.90;3.17;;;9.60;73.00;;;;;;4987720;28;20494;-79
2023/03/29 08:02:00;;;;;;;7.90;2.83;;;9.70;72.90;;;;;;4988991;28;20497;-79
2023/03/29 08:04:35;;;;;;;7.30;3.27;;;9.70;72.70;;;;;;4995989;28;20528;-79
2023/03/29 08:07:18;;;;;;;6.90;3.80;;;9.70;72.70;;;;;;4994194;28;20607;-80
2023/03/29 08:10:07;;;;;;;6.60;3.13;;;9.70;72.70;;;;;;4988072;28;20508;-81
2023/03/29 08:12:55;;;;;;;5.87;3.00;;;9.80;72.70;;;;;;4989277;28;20516;-79
2023/03/29 08:15:32;;;;;;;6.37;3.40;;;9.80;72.70;;;;;;4988065;28;20488;-80
2023/03/29 08:18:00;;;;;;;6.27;3.50;;;9.80;72.60;;;;;;4977318;28;20816;-80
2023/03/29 08:20:28;;;;;;;6.20;3.43;;;9.90;72.60;;;;;;4992851;28;20465;-81
2023/03/29 08:23:01;;;;;;;6.27;3.10;;;9.80;72.60;;;;;;4978896;28;20492;-80
2023/03/29 08:25:50;;;;;;;9.30;3.07;;;9.90;72.50;;;;;;4991178;28;20556;-81
2023/03/29 08:28:22;;;;;;;6.30;2.83;;;9.90;72.40;;;;;;4990576;28;20503;-80
2023/03/29 08:30:53;;;;;;;8.17;3.30;;;10.00;72.40;;;;;;4989669;28;20496;-80
2023/03/29 08:33:21;;;;;;;5.20;2.87;;;10.00;72.40;;;;;;4987298;28;20466;-78
2023/03/29 08:36:05;;;;;;;5.77;3.40;;;10.00;72.40;;;;;;4985721;28;20527;-78
2023/03/29 08:38:36;;;;;;;7.17;3.20;;;10.10;72.30;;;;;;4991129;28;20460;-79
2023/03/29 08:41:19;;;;;;;5.67;3.00;;;10.10;72.30;;;;;;4992196;28;20476;-81
2023/03/29 08:44:05;;;;;;;6.63;2.57;;;10.10;72.20;;;;;;4992237;28;20484;-80
2023/03/29 08:46:49;;;;;;;7.93;3.33;;;10.20;72.10;;;;;;4990730;28;20457;-81
2023/03/29 08:49:31;;;;;;;6.90;3.00;;;10.20;72.10;;;;;;4980871;28;20453;-81
2023/03/29 08:52:05;;;;;;;6.70;3.10;;;10.30;72.00;;;;;;4976963;28;20521;-81
2023/03/29 08:54:43;;;;;;;5.70;2.60;;;10.40;72.00;;;;;;4996316;28;20461;-79
2023/03/29 08:57:33;;;;;;;5.40;3.00;;;10.40;71.90;;;;;;4989127;28;20456;-80
2023/03/29 09:00:09;;;;;;;5.10;2.57;;;10.40;71.90;;;;;;4995378;28;20520;-80
2023/03/29 09:02:43;;;;;;;6.10;2.80;;;10.50;71.90;;;;;;4989250;28;20470;-80
2023/03/29 09:05:22;;;;;;;6.30;2.80;;;10.50;71.80;;;;;;4992042;28;20908;-81
2023/03/29 09:07:59;;;;;;;8.33;2.57;;;10.60;71.60;;;;;;4989699;28;20524;-81
2023/03/29 09:10:37;;;;;;;4.90;2.30;;;10.60;71.60;;;;;;4997366;28;20474;-81
2023/03/29 09:13:23;;;;;;;5.67;2.73;;;10.60;71.60;;;;;;4991595;28;20465;-79
2023/03/29 09:15:59;;;;;;;5.77;2.70;;;10.70;71.60;;;;;;4979098;28;20541;-80
2023/03/29 09:18:46;;;;;;;8.53;3.33;;;10.80;71.50;;;;;;4981383;28;20875;-80
2023/03/29 09:21:22;;;;;;;7.67;3.20;;;10.80;71.70;;;;;;4979724;28;20977;-79
2023/03/29 09:24:18;;;;;;;5.20;2.20;;;10.90;71.50;;;;;;4978873;28;20470;-78
2023/03/29 09:27:15;;;;;;;6.87;2.90;;;11.00;71.40;;;;;;4990149;28;20757;-78
2023/03/29 09:29:58;;;;;;;11.13;2.40;;;11.00;71.40;;;;;;4994267;28;20471;-78
2023/03/29 09:32:49;;;;;;;6.47;3.00;;;11.10;71.40;;;;;;4979281;28;20478;-78
2023/03/29 09:35:25;;;;;;;5.60;2.67;;;11.10;71.50;;;;;;4987580;28;20455;-77
2023/03/29 09:37:54;;;;;;;7.57;2.60;;;11.20;71.40;;;;;;4990858;28;20518;-77
2023/03/29 09:40:27;;;;;;;7.03;2.40;;;11.30;71.40;;;;;;4992532;28;20472;-80
2023/03/29 09:43:08;;;;;;;6.07;2.67;;;11.40;71.30;;;;;;4984300;28;20455;-78
2023/03/29 09:45:37;;;;;;;7.77;2.77;;;11.50;71.10;;;;;;4973927;28;20458;-79
2023/03/29 09:48:12;;;;;;;8.37;2.60;;;11.50;70.90;;;;;;4993081;28;21101;-79
2023/03/29 09:50:50;;;;;;;7.53;2.37;;;11.60;71.00;;;;;;4993908;28;20501;-78
2023/03/29 09:53:20;;;;;;;7.17;2.33;;;11.60;71.00;;;;;;4989566;28;20464;-78
2023/03/29 09:56:08;;;;;;;9.30;2.50;;;11.70;71.00;;;;;;4994073;28;20476;-79
2023/03/29 09:58:48;;;;;;;7.40;2.23;;;11.80;70.70;;;;;;4991003;28;20896;-79
2023/03/29 10:01:18;;;;;;;7.37;2.30;;;11.80;70.60;;;;;;4989274;28;20938;-79
2023/03/29 10:03:51;;;;;;;5.70;2.30;;;11.90;70.50;;;;;;4994439;28;20460;-78
2023/03/29 10:06:24;;;;;;;5.77;2.50;;;11.90;70.50;;;;;;4978813;28;20516;-78
2023/03/29 10:08:57;;;;;;;6.33;2.73;;;11.90;70.30;;;;;;4991298;28;20482;-78
2023/03/29 10:11:52;;;;;;;6.83;2.60;;;12.00;70.40;;;;;;4986480;28;20996;-78
2023/03/29 10:14:30;;;;;;;9.33;2.47;;;12.00;70.30;;;;;;4992847;28;20641;-77
2023/03/29 10:16:59;;;;;;;5.87;2.50;;;12.10;70.30;;;;;;4988262;28;20462;-78
2023/03/29 10:19:29;;;;;;;6.23;2.03;;;12.20;70.80;;;;;;4989547;28;20581;-76
2023/03/29 10:22:03;;;;;;;6.10;2.20;;;12.40;70.90;;;;;;4990453;28;20481;-76
2023/03/29 10:24:32;;;;;;;7.40;2.80;;;12.60;70.40;;;;;;4989427;28;20559;-76
2023/03/29 10:27:02;;;;;;;5.57;2.20;;;12.80;70.30;;;;;;4989755;28;20745;-79
2023/03/29 10:29:36;;;;;;;5.87;2.20;;;12.90;70.10;;;;;;4991943;28;20500;-76
2023/03/29 10:32:14;;;;;;;4.93;1.97;;;13.00;69.70;;;;;;4991507;28;20510;-74
2023/03/29 10:34:43;;;;;;;9.47;3.10;;;13.10;69.70;;;;;;4988796;28;20696;-74
2023/03/29 10:37:15;;;;;;;7.67;2.70;;;13.20;69.60;;;;;;4994471;28;20515;-75
2023/03/29 10:39:43;;;;;;;7.53;2.07;;;13.30;69.30;;;;;;4985581;28;20470;-75
2023/03/29 10:42:14;;;;;;;4.97;2.20;;;13.40;69.20;;;;;;4992605;28;20473;-76
2023/03/29 10:44:42;;;;;;;5.30;1.60;;;13.40;69.10;;;;;;4987393;28;20520;-75
2023/03/29 10:47:16;;;;;;;5.27;2.30;;;13.50;69.10;;;;;;4991630;28;20472;-76
2023/03/29 10:49:46;;;;;;;5.17;1.83;;;13.60;68.90;;;;;;4991617;28;20602;-76
2023/03/29 10:52:17;;;;;;;6.10;2.30;;;13.70;68.80;;;;;;4996650;28;20492;-75
2023/03/29 10:54:46;;;;;;;5.20;2.20;;;13.70;68.70;;;;;;4992162;28;20465;-76
2023/03/29 10:57:23;;;;;;;9.17;3.23;;;13.70;68.60;;;;;;4987916;28;20564;-77
2023/03/29 10:59:58;;;;;;;5.67;2.20;;;13.80;68.60;;;;;;4990267;28;20445;-77
2023/03/29 11:03:00;;;;;;;6.00;2.60;;;13.80;68.30;;;;;;4986307;28;20736;-78
2023/03/29 11:05:35;;;;;;;5.37;2.87;;;13.90;68.10;;;;;;4992089;28;20537;-77
2023/03/29 11:08:27;;;;;;;5.30;2.03;;;13.90;68.20;;;;;;4990576;28;20511;-78
2023/03/29 11:11:09;;;;;;;6.33;2.40;;;14.00;67.90;;;;;;4974478;28;20485;-78
2023/03/29 11:13:46;;;;;;;7.17;2.20;;;14.10;67.80;;;;;;4989952;28;20541;-77
2023/03/29 11:16:29;;;;;;;6.27;2.20;;;14.10;67.80;;;;;;4987081;28;20525;-77
2023/03/29 11:19:38;;;;;;;6.30;2.37;;;14.10;67.60;;;;;;4985782;28;20474;-78
2023/03/29 11:22:13;;;;;;;5.77;2.10;;;14.20;67.40;;;;;;4982162;28;20573;-77
2023/03/29 11:25:00;;;;;;;6.63;1.90;;;14.20;67.30;;;;;;4986255;28;20456;-77
2023/03/29 11:27:37;;;;;;;5.03;2.07;;;14.20;67.10;;;;;;4987150;28;20695;-77
2023/03/29 11:30:13;;;;;;;5.07;2.20;;;14.30;67.00;;;;;;4992305;28;20489;-78
2023/03/29 11:32:50;;;;;;;4.87;1.70;;;14.30;66.80;;;;;;4976213;28;20607;-78
2023/03/29 11:35:37;;;;;;;7.93;2.10;;;14.30;66.80;;;;;;4986671;28;20537;-77
2023/03/29 11:38:13;;;;;;;5.70;1.77;;;14.30;66.70;;;;;;4990323;28;20478;-76
2023/03/29 11:40:50;;;;;;;5.40;2.40;;;14.30;66.70;;;;;;4987900;28;20476;-76
2023/03/29 11:43:24;;;;;;;6.37;3.43;;;14.20;66.90;;;;;;4086707;28;10001002;-77
2023/03/29 11:45:55;;;;;;;8.43;2.53;;;14.20;67.00;;;;;;4971630;28;20209;-78
2023/03/29 11:48:28;;;;;;;6.20;2.67;;;14.30;67.00;;;;;;4968030;28;20474;-76
2023/03/29 11:51:01;;;;;;;6.70;2.90;;;14.30;66.90;;;;;;4967546;28;20922;-76
2023/03/29 11:53:40;;;;;;;5.53;2.10;;;14.30;66.90;;;;;;4965413;28;20954;-77
2023/03/29 11:56:14;;;;;;;7.20;2.60;;;14.40;66.70;;;;;;4968974;28;20503;-76
2023/03/29 11:58:48;;;;;;;5.37;2.10;;;14.30;66.80;;;;;;4970040;28;20481;-76
2023/03/29 12:01:21;;;;;;;6.67;2.47;;;14.40;66.50;;;;;;4967413;28;20485;-75
2023/03/29 12:03:52;;;;;;;8.57;2.47;;;14.30;66.70;;;;;;4968181;28;20470;-76
2023/03/29 12:06:25;;;;;;;5.20;2.37;;;14.40;66.80;;;;;;4967502;28;20466;-76
2023/03/29 12:08:59;;;;;;;5.07;2.17;;;14.40;66.90;;;;;;4970417;28;20522;-76
2023/03/29 12:11:35;;;;;;;8.53;2.73;;;14.50;66.50;;;;;;4966629;28;20533;-77
2023/03/29 12:14:07;;;;;;;5.10;2.37;;;14.50;66.50;;;;;;4971165;28;20524;-76
2023/03/29 12:16:40;;;;;;;6.00;1.93;;;14.50;66.50;;;;;;4967009;28;20497;-77
2023/03/29 12:19:20;;;;;;;6.27;2.20;;;14.50;66.50;;;;;;4969733;28;20480;-76
2023/03/29 12:21:49;;;;;;;5.07;1.97;;;14.50;66.50;;;;;;4978040;28;20598;-77
2023/03/29 12:24:20;;;;;;;8.20;1.80;;;14.50;66.40;;;;;;4965148;28;20493;-76
2023/03/29 12:27:09;;;;;;;4.70;1.73;;;14.50;66.40;;;;;;4968978;28;20482;-77
2023/03/29 12:30:11;;;;;;;4.77;1.90;;;14.50;66.50;;;;;;4964262;28;21009;-77
2023/03/29 12:32:50;;;;;;;5.57;1.83;;;14.50;66.70;;;;;;4956401;28;20470;-78
2023/03/29 12:35:54;;;;;;;4.43;1.70;;;14.50;66.80;;;;;;4971525;28;20517;-76
2023/03/29 12:38:54;;;;;;;5.80;1.77;;;14.50;66.90;;;;;;4966122;28;20566;-77
2023/03/29 12:42:16;;;;;;;5.70;2.07;;;14.40;67.00;;;;;;4910588;29;20836;-77
2023/03/29 12:45:04;;;;;;;6.00;2.20;;;14.40;67.10;;;;;;4910349;29;20502;-78
2023/03/29 12:47:38;;;;;;;9.23;2.63;;;14.40;67.30;;;;;;4955710;28;20478;-78
2023/03/29 12:50:16;;;;;;;5.77;2.17;;;14.40;67.50;;;;;;4969658;28;20503;-77
2023/03/29 12:52:45;;;;;;;6.20;1.87;;;14.40;67.60;;;;;;4969235;28;20481;-78
2023/03/29 12:55:29;;;;;;;8.23;2.40;;;14.40;67.50;;;;;;4975203;28;20475;-77
2023/03/29 12:58:02;;;;;;;4.10;1.67;;;14.40;67.60;;;;;;4975142;28;21035;-77
2023/03/29 13:00:34;;;;;;;6.50;2.10;;;14.40;67.70;;;;;;4973932;28;20743;-76
2023/03/29 13:03:06;;;;;;;7.23;2.07;;;14.50;67.80;;;;;;4967955;28;20887;-77
2023/03/29 13:05:36;;;;;;;4.33;1.87;;;14.50;67.70;;;;;;4971896;28;20470;-78
2023/03/29 13:08:21;;;;;;;5.27;2.03;;;14.50;67.80;;;;;;4975609;28;20440;-77
2023/03/29 13:10:54;;;;;;;5.50;2.10;;;14.40;68.20;;;;;;4965782;28;20613;-75
2023/03/29 13:13:27;;;;;;;7.60;2.73;;;14.40;68.10;;;;;;4986756;28;20468;-75
2023/03/29 13:15:56;;;;;;;9.27;2.50;;;14.40;68.00;;;;;;4971085;28;20482;-75
2023/03/29 13:18:40;;;;;;;4.70;1.70;;;14.30;68.00;;;;;;4970172;28;20466;-77
2023/03/29 13:21:17;;;;;;;4.40;1.93;;;14.30;68.10;;;;;;4972201;28;20529;-78
2023/03/29 13:23:57;;;;;;;4.57;1.60;;;14.20;68.10;;;;;;4971383;28;20453;-77
2023/03/29 13:26:41;;;;;;;6.20;2.00;;;14.20;68.30;;;;;;4993788;28;20514;-80
2023/03/29 13:29:33;;;;;;;6.17;2.23;;;14.20;68.30;;;;;;4987484;28;20463;-79
2023/03/29 13:32:12;;;;;;;7.13;3.10;;;14.20;68.40;;;;;;4968878;28;20816;-79
2023/03/29 13:34:47;;;;;;;6.37;2.00;;;14.20;68.50;;;;;;4969713;28;20649;-78